Toledo, Oregon
Current Conditions -  °F | °C
As of 9:35 AM on Thursday 30 Oct 2014 (Local Time) from KONP Reporting Station
Overcast Overcast  
Wind Chill: 59°   Ceiling: 3600
Heat Index: 59°   Visibility: 10mi
Dew Point: 57°   Wind: 5mph
Humidity: 94%   Direction: 100°E
Pressure: 29.86"   Gusts: NA
Location:  44.62°N, 123.94°W
Report Text: KONP 301635Z AUTO 10004KT 10SM SCT027 OVC036 15/14 A2986 RMK AO2
Loading
Personal Weather Stations






























Interactive Weather Map
Tropical Storm Tracking
New forecast layout! Learn more

10-Day Weather Forecast

Advertisements
Track Severe Weather on mobile